sensor_id;sensor_type;location;lat;lon;timestamp;temperature;humidity
54126;DHT22;40360;52.992;6.796;2023-07-31T00:01:20;15.80;99.90
54126;DHT22;40360;52.992;6.796;2023-07-31T00:03:46;15.80;99.90
54126;DHT22;40360;52.992;6.796;2023-07-31T00:06:12;15.70;99.90
54126;DHT22;40360;52.992;6.796;2023-07-31T00:08:38;15.90;99.90
54126;DHT22;40360;52.992;6.796;2023-07-31T00:11:03;15.70;99.90
54126;DHT22;40360;52.992;6.796;2023-07-31T00:13:29;15.70;99.90
54126;DHT22;40360;52.992;6.796;2023-07-31T00:15:55;15.70;99.90
54126;DHT22;40360;52.992;6.796;2023-07-31T00:18:20;15.60;99.90
54126;DHT22;40360;52.992;6.796;2023-07-31T00:20:46;15.60;99.90
54126;DHT22;40360;52.992;6.796;2023-07-31T00:23:11;15.60;99.90
54126;DHT22;40360;52.992;6.796;2023-07-31T00:25:37;15.60;99.90
54126;DHT22;40360;52.992;6.796;2023-07-31T00:28:03;15.60;99.90
54126;DHT22;40360;52.992;6.796;2023-07-31T00:30:28;15.60;99.90
54126;DHT22;40360;52.992;6.796;2023-07-31T00:32:54;15.50;99.90
54126;DHT22;40360;52.992;6.796;2023-07-31T00:35:19;15.50;99.90
54126;DHT22;40360;52.992;6.796;2023-07-31T00:37:45;15.50;99.90
54126;DHT22;40360;52.992;6.796;2023-07-31T00:40:11;15.50;99.90
54126;DHT22;40360;52.992;6.796;2023-07-31T00:42:36;15.50;99.90
54126;DHT22;40360;52.992;6.796;2023-07-31T00:45:02;15.50;99.90
54126;DHT22;40360;52.992;6.796;2023-07-31T00:47:28;15.40;99.90
54126;DHT22;40360;52.992;6.796;2023-07-31T00:49:54;15.40;99.90
54126;DHT22;40360;52.992;6.796;2023-07-31T00:52:20;15.40;99.90
54126;DHT22;40360;52.992;6.796;2023-07-31T00:54:46;15.50;99.90
54126;DHT22;40360;52.992;6.796;2023-07-31T00:57:12;15.40;99.90
54126;DHT22;40360;52.992;6.796;2023-07-31T00:59:37;15.40;99.90
54126;DHT22;40360;52.992;6.796;2023-07-31T01:02:04;15.40;99.90
54126;DHT22;40360;52.992;6.796;2023-07-31T01:04:30;15.40;99.90
54126;DHT22;40360;52.992;6.796;2023-07-31T01:07:11;15.50;99.90
54126;DHT22;40360;52.992;6.796;2023-07-31T01:09:52;15.40;99.90
54126;DHT22;40360;52.992;6.796;2023-07-31T01:12:21;15.40;99.90
54126;DHT22;40360;52.992;6.796;2023-07-31T01:15:01;15.30;99.90
54126;DHT22;40360;52.992;6.796;2023-07-31T01:17:28;15.30;99.90
54126;DHT22;40360;52.992;6.796;2023-07-31T01:19:55;15.30;99.90
54126;DHT22;40360;52.992;6.796;2023-07-31T01:22:49;15.30;99.90
54126;DHT22;40360;52.992;6.796;2023-07-31T01:28:07;15.30;99.90
54126;DHT22;40360;52.992;6.796;2023-07-31T01:30:34;15.30;99.90
54126;DHT22;40360;52.992;6.796;2023-07-31T01:33:03;15.30;99.90
54126;DHT22;40360;52.992;6.796;2023-07-31T01:35:33;15.30;99.90
54126;DHT22;40360;52.992;6.796;2023-07-31T01:37:59;15.30;99.90
54126;DHT22;40360;52.992;6.796;2023-07-31T01:40:24;15.20;99.90
54126;DHT22;40360;52.992;6.796;2023-07-31T01:42:50;15.20;99.90
54126;DHT22;40360;52.992;6.796;2023-07-31T01:45:16;15.20;99.90
54126;DHT22;40360;52.992;6.796;2023-07-31T01:47:41;15.20;99.90
54126;DHT22;40360;52.992;6.796;2023-07-31T01:50:07;15.20;99.90
54126;DHT22;40360;52.992;6.796;2023-07-31T01:52:33;15.20;99.90
54126;DHT22;40360;52.992;6.796;2023-07-31T01:54:58;15.20;99.90
54126;DHT22;40360;52.992;6.796;2023-07-31T01:57:24;15.20;99.90
54126;DHT22;40360;52.992;6.796;2023-07-31T01:59:50;15.30;99.90
54126;DHT22;40360;52.992;6.796;2023-07-31T02:02:16;15.20;99.90
54126;DHT22;40360;52.992;6.796;2023-07-31T02:04:41;15.20;99.90
54126;DHT22;40360;52.992;6.796;2023-07-31T02:07:07;15.20;99.90
54126;DHT22;40360;52.992;6.796;2023-07-31T02:09:33;15.20;99.90
54126;DHT22;40360;52.992;6.796;2023-07-31T02:11:58;15.30;99.90
54126;DHT22;40360;52.992;6.796;2023-07-31T02:14:24;15.30;99.90
54126;DHT22;40360;52.992;6.796;2023-07-31T02:16:50;15.20;99.90
54126;DHT22;40360;52.992;6.796;2023-07-31T02:19:15;15.30;99.90
54126;DHT22;40360;52.992;6.796;2023-07-31T02:21:41;15.20;99.90
54126;DHT22;40360;52.992;6.796;2023-07-31T02:24:06;15.30;99.90
54126;DHT22;40360;52.992;6.796;2023-07-31T02:26:32;15.20;99.90
54126;DHT22;40360;52.992;6.796;2023-07-31T02:28:58;15.30;99.90
54126;DHT22;40360;52.992;6.796;2023-07-31T02:31:26;15.30;99.90
54126;DHT22;40360;52.992;6.796;2023-07-31T02:33:52;15.20;99.90
54126;DHT22;40360;52.992;6.796;2023-07-31T02:36:17;15.30;99.90
54126;DHT22;40360;52.992;6.796;2023-07-31T02:38:43;15.20;99.90
54126;DHT22;40360;52.992;6.796;2023-07-31T02:41:09;15.30;99.90
54126;DHT22;40360;52.992;6.796;2023-07-31T02:43:34;15.30;99.90
54126;DHT22;40360;52.992;6.796;2023-07-31T02:46:00;15.30;99.90
54126;DHT22;40360;52.992;6.796;2023-07-31T02:48:25;15.30;99.90
54126;DHT22;40360;52.992;6.796;2023-07-31T02:50:51;15.30;99.90
54126;DHT22;40360;52.992;6.796;2023-07-31T02:53:17;15.30;99.90
54126;DHT22;40360;52.992;6.796;2023-07-31T02:55:42;15.30;99.90
54126;DHT22;40360;52.992;6.796;2023-07-31T02:58:08;15.40;99.90
54126;DHT22;40360;52.992;6.796;2023-07-31T03:00:33;15.40;99.90
54126;DHT22;40360;52.992;6.796;2023-07-31T03:02:59;15.30;99.90
54126;DHT22;40360;52.992;6.796;2023-07-31T03:05:24;15.40;99.90
54126;DHT22;40360;52.992;6.796;2023-07-31T03:07:50;15.40;99.90
54126;DHT22;40360;52.992;6.796;2023-07-31T03:10:16;15.40;99.90
54126;DHT22;40360;52.992;6.796;2023-07-31T03:12:41;15.40;99.90
54126;DHT22;40360;52.992;6.796;2023-07-31T03:15:07;15.40;99.90
54126;DHT22;40360;52.992;6.796;2023-07-31T03:17:33;15.40;99.90
54126;DHT22;40360;52.992;6.796;2023-07-31T03:19:59;15.40;99.90
54126;DHT22;40360;52.992;6.796;2023-07-31T03:22:24;15.40;99.90
54126;DHT22;40360;52.992;6.796;2023-07-31T03:24:50;15.40;99.90
54126;DHT22;40360;52.992;6.796;2023-07-31T03:27:15;15.40;99.90
54126;DHT22;40360;52.992;6.796;2023-07-31T03:29:41;15.40;99.90
54126;DHT22;40360;52.992;6.796;2023-07-31T03:32:07;15.50;99.90
54126;DHT22;40360;52.992;6.796;2023-07-31T03:34:32;15.50;99.90
54126;DHT22;40360;52.992;6.796;2023-07-31T03:36:58;15.50;99.90
54126;DHT22;40360;52.992;6.796;2023-07-31T03:39:24;15.50;99.90
54126;DHT22;40360;52.992;6.796;2023-07-31T03:41:49;15.50;99.90
54126;DHT22;40360;52.992;6.796;2023-07-31T03:44:15;15.50;99.90
54126;DHT22;40360;52.992;6.796;2023-07-31T03:46:41;15.50;99.90
54126;DHT22;40360;52.992;6.796;2023-07-31T03:49:06;15.60;99.90
54126;DHT22;40360;52.992;6.796;2023-07-31T03:51:32;15.50;99.90
54126;DHT22;40360;52.992;6.796;2023-07-31T03:53:58;15.50;99.90
54126;DHT22;40360;52.992;6.796;2023-07-31T03:56:23;15.50;99.90
54126;DHT22;40360;52.992;6.796;2023-07-31T03:58:49;15.60;99.90
54126;DHT22;40360;52.992;6.796;2023-07-31T04:01:14;15.60;99.90
54126;DHT22;40360;52.992;6.796;2023-07-31T04:03:40;15.50;99.90
54126;DHT22;40360;52.992;6.796;2023-07-31T04:06:06;15.60;99.90
54126;DHT22;40360;52.992;6.796;2023-07-31T04:08:32;15.50;99.90
54126;DHT22;40360;52.992;6.796;2023-07-31T04:10:58;15.60;99.90
54126;DHT22;40360;52.992;6.796;2023-07-31T04:13:23;15.60;99.90
54126;DHT22;40360;52.992;6.796;2023-07-31T04:15:49;15.60;99.90
54126;DHT22;40360;52.992;6.796;2023-07-31T04:18:18;15.60;99.90
54126;DHT22;40360;52.992;6.796;2023-07-31T04:20:44;15.60;99.90
54126;DHT22;40360;52.992;6.796;2023-07-31T04:23:09;15.70;99.90
54126;DHT22;40360;52.992;6.796;2023-07-31T04:25:35;15.60;99.90
54126;DHT22;40360;52.992;6.796;2023-07-31T04:28:01;15.70;99.90
54126;DHT22;40360;52.992;6.796;2023-07-31T04:30:26;15.70;99.90
54126;DHT22;40360;52.992;6.796;2023-07-31T04:32:52;15.70;99.90
54126;DHT22;40360;52.992;6.796;2023-07-31T04:35:18;15.70;99.90
54126;DHT22;40360;52.992;6.796;2023-07-31T04:37:43;15.70;99.90
54126;DHT22;40360;52.992;6.796;2023-07-31T04:40:11;15.80;99.90
54126;DHT22;40360;52.992;6.796;2023-07-31T04:42:37;15.80;99.90
54126;DHT22;40360;52.992;6.796;2023-07-31T04:45:03;15.80;99.90
54126;DHT22;40360;52.992;6.796;2023-07-31T04:47:30;15.80;99.90
54126;DHT22;40360;52.992;6.796;2023-07-31T04:49:56;15.80;99.90
54126;DHT22;40360;52.992;6.796;2023-07-31T04:52:21;15.80;99.90
54126;DHT22;40360;52.992;6.796;2023-07-31T04:54:47;15.80;99.90
54126;DHT22;40360;52.992;6.796;2023-07-31T04:57:12;15.80;99.90
54126;DHT22;40360;52.992;6.796;2023-07-31T04:59:38;15.80;99.90
54126;DHT22;40360;52.992;6.796;2023-07-31T05:02:04;15.80;99.90
54126;DHT22;40360;52.992;6.796;2023-07-31T05:04:30;15.80;99.90
54126;DHT22;40360;52.992;6.796;2023-07-31T05:06:56;15.80;99.90
54126;DHT22;40360;52.992;6.796;2023-07-31T05:09:21;15.80;99.90
54126;DHT22;40360;52.992;6.796;2023-07-31T05:11:47;15.80;99.90
54126;DHT22;40360;52.992;6.796;2023-07-31T05:14:13;15.80;99.90
54126;DHT22;40360;52.992;6.796;2023-07-31T05:16:39;15.80;99.90
54126;DHT22;40360;52.992;6.796;2023-07-31T05:19:04;15.90;99.90
54126;DHT22;40360;52.992;6.796;2023-07-31T05:21:30;15.80;99.90
54126;DHT22;40360;52.992;6.796;2023-07-31T05:23:56;15.90;99.90
54126;DHT22;40360;52.992;6.796;2023-07-31T05:26:21;15.90;99.90
54126;DHT22;40360;52.992;6.796;2023-07-31T05:28:47;16.00;99.90
54126;DHT22;40360;52.992;6.796;2023-07-31T05:31:12;15.90;99.90
54126;DHT22;40360;52.992;6.796;2023-07-31T05:33:38;15.90;99.90
54126;DHT22;40360;52.992;6.796;2023-07-31T05:36:04;15.90;99.90
54126;DHT22;40360;52.992;6.796;2023-07-31T05:38:29;15.90;99.90
54126;DHT22;40360;52.992;6.796;2023-07-31T05:40:55;16.00;99.90
54126;DHT22;40360;52.992;6.796;2023-07-31T05:43:21;16.00;99.90
54126;DHT22;40360;52.992;6.796;2023-07-31T06:01:59;16.30;99.90
54126;DHT22;40360;52.992;6.796;2023-07-31T06:04:25;16.20;99.90
54126;DHT22;40360;52.992;6.796;2023-07-31T06:06:51;16.20;99.90
54126;DHT22;40360;52.992;6.796;2023-07-31T06:09:17;16.30;99.90
54126;DHT22;40360;52.992;6.796;2023-07-31T06:11:42;16.30;99.90
54126;DHT22;40360;52.992;6.796;2023-07-31T06:14:08;16.40;99.90
54126;DHT22;40360;52.992;6.796;2023-07-31T06:16:34;16.40;99.90
54126;DHT22;40360;52.992;6.796;2023-07-31T06:19:00;16.40;99.90
54126;DHT22;40360;52.992;6.796;2023-07-31T06:21:26;16.40;99.90
54126;DHT22;40360;52.992;6.796;2023-07-31T06:23:51;16.50;99.90
54126;DHT22;40360;52.992;6.796;2023-07-31T06:26:17;16.50;99.90
54126;DHT22;40360;52.992;6.796;2023-07-31T06:28:42;16.60;99.90
54126;DHT22;40360;52.992;6.796;2023-07-31T06:31:08;16.60;99.90
54126;DHT22;40360;52.992;6.796;2023-07-31T06:33:34;16.60;99.90
54126;DHT22;40360;52.992;6.796;2023-07-31T06:35:59;16.70;99.90
54126;DHT22;40360;52.992;6.796;2023-07-31T06:38:26;16.70;99.90
54126;DHT22;40360;52.992;6.796;2023-07-31T06:40:52;16.60;99.90
54126;DHT22;40360;52.992;6.796;2023-07-31T06:43:18;16.70;99.90
54126;DHT22;40360;52.992;6.796;2023-07-31T06:45:44;16.70;99.90
54126;DHT22;40360;52.992;6.796;2023-07-31T06:48:10;16.70;99.90
54126;DHT22;40360;52.992;6.796;2023-07-31T06:50:35;16.70;99.90
54126;DHT22;40360;52.992;6.796;2023-07-31T06:53:01;16.80;99.90
54126;DHT22;40360;52.992;6.796;2023-07-31T06:55:27;16.90;99.90
54126;DHT22;40360;52.992;6.796;2023-07-31T06:57:54;16.90;99.90
54126;DHT22;40360;52.992;6.796;2023-07-31T07:00:21;17.00;99.90
54126;DHT22;40360;52.992;6.796;2023-07-31T07:02:48;17.00;99.90
54126;DHT22;40360;52.992;6.796;2023-07-31T07:05:14;17.00;99.90
54126;DHT22;40360;52.992;6.796;2023-07-31T07:07:40;17.00;99.90
54126;DHT22;40360;52.992;6.796;2023-07-31T07:10:06;17.00;99.90
54126;DHT22;40360;52.992;6.796;2023-07-31T07:12:33;17.10;99.90
54126;DHT22;40360;52.992;6.796;2023-07-31T07:15:00;17.00;99.90
54126;DHT22;40360;52.992;6.796;2023-07-31T07:17:28;17.00;99.90
54126;DHT22;40360;52.992;6.796;2023-07-31T07:19:53;17.00;99.90
54126;DHT22;40360;52.992;6.796;2023-07-31T07:22:20;17.00;99.90
54126;DHT22;40360;52.992;6.796;2023-07-31T07:24:46;17.00;99.90
54126;DHT22;40360;52.992;6.796;2023-07-31T07:27:11;17.00;99.90
54126;DHT22;40360;52.992;6.796;2023-07-31T07:29:38;17.00;99.90
54126;DHT22;40360;52.992;6.796;2023-07-31T07:32:04;17.00;99.90
54126;DHT22;40360;52.992;6.796;2023-07-31T07:34:30;17.00;99.90
54126;DHT22;40360;52.992;6.796;2023-07-31T07:36:55;16.90;99.90
54126;DHT22;40360;52.992;6.796;2023-07-31T07:39:21;16.90;99.90
54126;DHT22;40360;52.992;6.796;2023-07-31T07:41:47;17.00;99.90
54126;DHT22;40360;52.992;6.796;2023-07-31T07:44:13;17.20;99.90
54126;DHT22;40360;52.992;6.796;2023-07-31T07:46:39;17.10;99.90
54126;DHT22;40360;52.992;6.796;2023-07-31T07:49:05;17.10;99.90
54126;DHT22;40360;52.992;6.796;2023-07-31T07:51:30;17.10;99.90
54126;DHT22;40360;52.992;6.796;2023-07-31T07:53:57;17.00;99.90
54126;DHT22;40360;52.992;6.796;2023-07-31T07:56:23;17.00;99.90
54126;DHT22;40360;52.992;6.796;2023-07-31T07:58:50;17.00;99.90
54126;DHT22;40360;52.992;6.796;2023-07-31T08:01:16;17.00;99.90
54126;DHT22;40360;52.992;6.796;2023-07-31T08:03:41;16.90;99.90
54126;DHT22;40360;52.992;6.796;2023-07-31T08:06:07;16.80;99.90
54126;DHT22;40360;52.992;6.796;2023-07-31T08:08:35;16.80;99.90
54126;DHT22;40360;52.992;6.796;2023-07-31T08:11:00;16.80;99.90
54126;DHT22;40360;52.992;6.796;2023-07-31T08:13:26;16.80;99.90
54126;DHT22;40360;52.992;6.796;2023-07-31T08:15:52;16.90;99.90
54126;DHT22;40360;52.992;6.796;2023-07-31T08:18:17;16.90;99.90
54126;DHT22;40360;52.992;6.796;2023-07-31T08:20:43;16.80;99.90
54126;DHT22;40360;52.992;6.796;2023-07-31T08:23:09;16.90;99.90
54126;DHT22;40360;52.992;6.796;2023-07-31T08:25:35;16.90;99.90
54126;DHT22;40360;52.992;6.796;2023-07-31T08:28:02;16.90;99.90
54126;DHT22;40360;52.992;6.796;2023-07-31T08:30:27;16.90;99.90
54126;DHT22;40360;52.992;6.796;2023-07-31T08:32:53;16.90;99.90
54126;DHT22;40360;52.992;6.796;2023-07-31T08:35:18;16.90;99.90
54126;DHT22;40360;52.992;6.796;2023-07-31T08:37:44;17.00;99.90
54126;DHT22;40360;52.992;6.796;2023-07-31T08:40:10;17.10;99.90
54126;DHT22;40360;52.992;6.796;2023-07-31T08:42:46;17.10;99.90
54126;DHT22;40360;52.992;6.796;2023-07-31T08:45:16;16.90;99.90
54126;DHT22;40360;52.992;6.796;2023-07-31T08:47:49;17.20;99.90
54126;DHT22;40360;52.992;6.796;2023-07-31T08:50:18;17.20;99.90
54126;DHT22;40360;52.992;6.796;2023-07-31T08:52:45;17.30;99.90
54126;DHT22;40360;52.992;6.796;2023-07-31T08:55:10;17.40;99.90
54126;DHT22;40360;52.992;6.796;2023-07-31T08:57:38;17.50;99.90
54126;DHT22;40360;52.992;6.796;2023-07-31T09:00:05;17.40;99.90
54126;DHT22;40360;52.992;6.796;2023-07-31T09:02:43;17.40;99.90
54126;DHT22;40360;52.992;6.796;2023-07-31T09:05:11;17.50;99.90
54126;DHT22;40360;52.992;6.796;2023-07-31T09:07:37;17.60;99.90
54126;DHT22;40360;52.992;6.796;2023-07-31T09:10:04;17.70;99.90
54126;DHT22;40360;52.992;6.796;2023-07-31T09:12:30;17.80;99.90
54126;DHT22;40360;52.992;6.796;2023-07-31T09:14:59;17.80;99.90
54126;DHT22;40360;52.992;6.796;2023-07-31T09:17:30;17.90;99.90
54126;DHT22;40360;52.992;6.796;2023-07-31T09:19:56;18.00;99.90
54126;DHT22;40360;52.992;6.796;2023-07-31T09:22:32;18.10;99.90
54126;DHT22;40360;52.992;6.796;2023-07-31T09:27:50;18.20;99.90
54126;DHT22;40360;52.992;6.796;2023-07-31T09:30:19;18.20;99.90
54126;DHT22;40360;52.992;6.796;2023-07-31T09:32:46;18.30;99.90
54126;DHT22;40360;52.992;6.796;2023-07-31T09:35:32;18.30;99.90
54126;DHT22;40360;52.992;6.796;2023-07-31T09:37:59;18.30;99.90
54126;DHT22;40360;52.992;6.796;2023-07-31T09:43:09;18.20;99.90
54126;DHT22;40360;52.992;6.796;2023-07-31T09:45:40;18.20;99.90
54126;DHT22;40360;52.992;6.796;2023-07-31T09:48:10;18.20;99.90
54126;DHT22;40360;52.992;6.796;2023-07-31T09:50:40;18.10;99.90
54126;DHT22;40360;52.992;6.796;2023-07-31T09:53:07;18.10;99.90
54126;DHT22;40360;52.992;6.796;2023-07-31T09:55:34;18.20;99.90
54126;DHT22;40360;52.992;6.796;2023-07-31T09:58:09;18.20;99.90
54126;DHT22;40360;52.992;6.796;2023-07-31T10:00:35;18.20;99.90
54126;DHT22;40360;52.992;6.796;2023-07-31T10:03:04;18.20;99.90
54126;DHT22;40360;52.992;6.796;2023-07-31T10:05:39;18.20;99.90
54126;DHT22;40360;52.992;6.796;2023-07-31T10:08:07;18.20;99.90
54126;DHT22;40360;52.992;6.796;2023-07-31T10:10:37;18.20;99.90
54126;DHT22;40360;52.992;6.796;2023-07-31T10:13:06;18.30;99.90
54126;DHT22;40360;52.992;6.796;2023-07-31T10:15:32;18.50;99.90
54126;DHT22;40360;52.992;6.796;2023-07-31T10:17:58;18.40;99.90
54126;DHT22;40360;52.992;6.796;2023-07-31T10:20:24;18.40;99.90
54126;DHT22;40360;52.992;6.796;2023-07-31T10:22:52;18.60;99.90
54126;DHT22;40360;52.992;6.796;2023-07-31T10:25:18;18.50;99.90
54126;DHT22;40360;52.992;6.796;2023-07-31T10:27:45;18.50;99.90
54126;DHT22;40360;52.992;6.796;2023-07-31T10:30:15;18.60;99.90
54126;DHT22;40360;52.992;6.796;2023-07-31T10:32:41;18.60;99.90
54126;DHT22;40360;52.992;6.796;2023-07-31T10:35:09;18.80;99.90
54126;DHT22;40360;52.992;6.796;2023-07-31T10:37:39;18.90;99.90
54126;DHT22;40360;52.992;6.796;2023-07-31T10:40:31;18.90;99.90
54126;DHT22;40360;52.992;6.796;2023-07-31T10:42:57;19.10;99.90
54126;DHT22;40360;52.992;6.796;2023-07-31T10:48:03;19.50;99.90
54126;DHT22;40360;52.992;6.796;2023-07-31T10:50:30;19.50;99.90
54126;DHT22;40360;52.992;6.796;2023-07-31T10:52:58;19.60;99.90
54126;DHT22;40360;52.992;6.796;2023-07-31T10:55:44;19.60;99.90
54126;DHT22;40360;52.992;6.796;2023-07-31T10:58:19;19.70;99.90
54126;DHT22;40360;52.992;6.796;2023-07-31T11:00:45;19.50;99.90
54126;DHT22;40360;52.992;6.796;2023-07-31T11:03:17;19.60;99.90
54126;DHT22;40360;52.992;6.796;2023-07-31T11:13:28;19.10;99.90
54126;DHT22;40360;52.992;6.796;2023-07-31T11:15:54;19.10;99.90
54126;DHT22;40360;52.992;6.796;2023-07-31T11:18:20;19.20;99.90
54126;DHT22;40360;52.992;6.796;2023-07-31T11:20:46;19.20;99.90
54126;DHT22;40360;52.992;6.796;2023-07-31T11:23:12;19.20;99.90
54126;DHT22;40360;52.992;6.796;2023-07-31T11:25:39;19.30;99.90
54126;DHT22;40360;52.992;6.796;2023-07-31T11:28:11;19.20;99.90
54126;DHT22;40360;52.992;6.796;2023-07-31T11:30:38;19.30;99.90
54126;DHT22;40360;52.992;6.796;2023-07-31T11:33:05;19.40;99.90
54126;DHT22;40360;52.992;6.796;2023-07-31T11:35:40;19.40;99.90
54126;DHT22;40360;52.992;6.796;2023-07-31T11:38:06;19.40;99.90
54126;DHT22;40360;52.992;6.796;2023-07-31T11:40:44;19.40;99.90
54126;DHT22;40360;52.992;6.796;2023-07-31T11:43:10;19.40;99.90
54126;DHT22;40360;52.992;6.796;2023-07-31T11:45:37;19.60;99.90
54126;DHT22;40360;52.992;6.796;2023-07-31T11:48:03;19.50;99.90
54126;DHT22;40360;52.992;6.796;2023-07-31T11:50:33;19.50;99.90
54126;DHT22;40360;52.992;6.796;2023-07-31T11:53:04;19.40;99.90
54126;DHT22;40360;52.992;6.796;2023-07-31T11:55:31;19.20;99.90
54126;DHT22;40360;52.992;6.796;2023-07-31T11:57:57;19.10;99.90
54126;DHT22;40360;52.992;6.796;2023-07-31T12:00:24;18.90;99.90
54126;DHT22;40360;52.992;6.796;2023-07-31T12:02:51;18.70;99.90
54126;DHT22;40360;52.992;6.796;2023-07-31T12:05:17;18.60;99.90
54126;DHT22;40360;52.992;6.796;2023-07-31T12:07:53;18.70;99.90
54126;DHT22;40360;52.992;6.796;2023-07-31T12:13:02;18.80;99.90
54126;DHT22;40360;52.992;6.796;2023-07-31T12:15:38;18.80;99.90
54126;DHT22;40360;52.992;6.796;2023-07-31T12:18:05;18.80;99.90
54126;DHT22;40360;52.992;6.796;2023-07-31T12:20:32;18.80;99.90
54126;DHT22;40360;52.992;6.796;2023-07-31T12:22:58;18.80;99.90
54126;DHT22;40360;52.992;6.796;2023-07-31T12:25:29;18.80;99.90
54126;DHT22;40360;52.992;6.796;2023-07-31T12:27:54;18.80;99.90
54126;DHT22;40360;52.992;6.796;2023-07-31T12:30:34;18.80;99.90
54126;DHT22;40360;52.992;6.796;2023-07-31T12:33:36;18.80;99.90
54126;DHT22;40360;52.992;6.796;2023-07-31T12:36:04;18.70;99.90
54126;DHT22;40360;52.992;6.796;2023-07-31T12:38:32;18.60;99.90
54126;DHT22;40360;52.992;6.796;2023-07-31T12:40:57;18.60;99.90
54126;DHT22;40360;52.992;6.796;2023-07-31T12:43:23;18.60;99.90
54126;DHT22;40360;52.992;6.796;2023-07-31T12:45:49;18.60;99.90
54126;DHT22;40360;52.992;6.796;2023-07-31T12:48:14;18.50;99.90
54126;DHT22;40360;52.992;6.796;2023-07-31T12:50:40;18.60;99.90
54126;DHT22;40360;52.992;6.796;2023-07-31T12:53:06;18.60;99.90
54126;DHT22;40360;52.992;6.796;2023-07-31T12:55:32;18.60;99.90
54126;DHT22;40360;52.992;6.796;2023-07-31T12:58:01;18.60;99.90
54126;DHT22;40360;52.992;6.796;2023-07-31T13:00:27;18.70;99.90
54126;DHT22;40360;52.992;6.796;2023-07-31T13:02:52;18.80;99.90
54126;DHT22;40360;52.992;6.796;2023-07-31T13:05:18;18.80;99.90
54126;DHT22;40360;52.992;6.796;2023-07-31T13:07:46;18.90;99.90
54126;DHT22;40360;52.992;6.796;2023-07-31T13:10:11;18.90;99.90
54126;DHT22;40360;52.992;6.796;2023-07-31T13:12:37;19.00;99.90
54126;DHT22;40360;52.992;6.796;2023-07-31T13:15:04;18.80;99.90
54126;DHT22;40360;52.992;6.796;2023-07-31T13:17:30;18.80;99.90
54126;DHT22;40360;52.992;6.796;2023-07-31T13:19:56;18.80;99.90
54126;DHT22;40360;52.992;6.796;2023-07-31T13:22:21;18.80;99.90
54126;DHT22;40360;52.992;6.796;2023-07-31T13:24:47;18.80;99.90
54126;DHT22;40360;52.992;6.796;2023-07-31T13:27:13;18.80;99.90
54126;DHT22;40360;52.992;6.796;2023-07-31T13:29:40;19.00;99.90
54126;DHT22;40360;52.992;6.796;2023-07-31T13:32:05;18.90;99.90
54126;DHT22;40360;52.992;6.796;2023-07-31T13:34:31;19.00;99.90
54126;DHT22;40360;52.992;6.796;2023-07-31T13:36:57;19.10;99.90
54126;DHT22;40360;52.992;6.796;2023-07-31T13:39:22;19.10;99.90
54126;DHT22;40360;52.992;6.796;2023-07-31T13:41:48;19.10;99.90
54126;DHT22;40360;52.992;6.796;2023-07-31T13:44:14;19.10;99.90
54126;DHT22;40360;52.992;6.796;2023-07-31T13:46:40;19.20;99.90
54126;DHT22;40360;52.992;6.796;2023-07-31T13:49:05;19.30;99.90
54126;DHT22;40360;52.992;6.796;2023-07-31T13:51:31;19.30;99.90
54126;DHT22;40360;52.992;6.796;2023-07-31T13:53:56;19.40;99.90
54126;DHT22;40360;52.992;6.796;2023-07-31T13:56:22;19.50;99.90
54126;DHT22;40360;52.992;6.796;2023-07-31T13:58:48;19.70;99.90
54126;DHT22;40360;52.992;6.796;2023-07-31T14:01:13;19.70;99.90
54126;DHT22;40360;52.992;6.796;2023-07-31T14:03:39;19.80;99.90
54126;DHT22;40360;52.992;6.796;2023-07-31T14:06:04;19.90;99.90
54126;DHT22;40360;52.992;6.796;2023-07-31T14:08:30;19.90;99.90
54126;DHT22;40360;52.992;6.796;2023-07-31T14:10:56;19.90;99.90
54126;DHT22;40360;52.992;6.796;2023-07-31T14:13:22;20.00;99.90
54126;DHT22;40360;52.992;6.796;2023-07-31T14:15:48;20.00;99.90
54126;DHT22;40360;52.992;6.796;2023-07-31T14:18:13;20.00;99.90
54126;DHT22;40360;52.992;6.796;2023-07-31T14:20:39;20.10;99.90
54126;DHT22;40360;52.992;6.796;2023-07-31T14:23:04;20.10;99.90
54126;DHT22;40360;52.992;6.796;2023-07-31T14:25:30;20.10;99.90
54126;DHT22;40360;52.992;6.796;2023-07-31T14:27:55;20.20;99.90
54126;DHT22;40360;52.992;6.796;2023-07-31T14:30:21;20.20;99.90
54126;DHT22;40360;52.992;6.796;2023-07-31T14:32:47;20.20;99.90
54126;DHT22;40360;52.992;6.796;2023-07-31T14:35:13;20.20;99.90
54126;DHT22;40360;52.992;6.796;2023-07-31T14:37:43;20.10;99.90
54126;DHT22;40360;52.992;6.796;2023-07-31T14:40:11;20.20;99.90
54126;DHT22;40360;52.992;6.796;2023-07-31T14:42:37;20.20;99.90
54126;DHT22;40360;52.992;6.796;2023-07-31T14:45:06;20.20;99.90
54126;DHT22;40360;52.992;6.796;2023-07-31T14:47:32;20.20;99.90
54126;DHT22;40360;52.992;6.796;2023-07-31T14:49:59;20.20;99.90
54126;DHT22;40360;52.992;6.796;2023-07-31T14:52:25;20.20;99.90
54126;DHT22;40360;52.992;6.796;2023-07-31T14:54:51;20.10;99.90
54126;DHT22;40360;52.992;6.796;2023-07-31T14:57:16;20.10;99.90
54126;DHT22;40360;52.992;6.796;2023-07-31T14:59:42;20.10;99.90
54126;DHT22;40360;52.992;6.796;2023-07-31T15:02:09;20.10;99.90
54126;DHT22;40360;52.992;6.796;2023-07-31T15:04:35;20.10;99.90
54126;DHT22;40360;52.992;6.796;2023-07-31T15:07:01;20.00;99.90
54126;DHT22;40360;52.992;6.796;2023-07-31T15:09:27;20.00;99.90
54126;DHT22;40360;52.992;6.796;2023-07-31T15:11:53;19.90;99.90
54126;DHT22;40360;52.992;6.796;2023-07-31T15:14:18;19.90;99.90
54126;DHT22;40360;52.992;6.796;2023-07-31T15:16:44;19.90;99.90
54126;DHT22;40360;52.992;6.796;2023-07-31T15:19:10;19.90;99.90
54126;DHT22;40360;52.992;6.796;2023-07-31T15:21:38;19.90;99.90
54126;DHT22;40360;52.992;6.796;2023-07-31T15:24:04;19.90;99.90
54126;DHT22;40360;52.992;6.796;2023-07-31T15:26:29;19.90;99.90
54126;DHT22;40360;52.992;6.796;2023-07-31T15:29:06;19.90;99.90
54126;DHT22;40360;52.992;6.796;2023-07-31T15:31:41;19.90;99.90
54126;DHT22;40360;52.992;6.796;2023-07-31T15:34:06;19.90;99.90
54126;DHT22;40360;52.992;6.796;2023-07-31T15:36:32;19.80;99.90
54126;DHT22;40360;52.992;6.796;2023-07-31T15:38:58;19.90;99.90
54126;DHT22;40360;52.992;6.796;2023-07-31T15:41:24;19.90;99.90
54126;DHT22;40360;52.992;6.796;2023-07-31T15:43:51;19.90;99.90
54126;DHT22;40360;52.992;6.796;2023-07-31T15:46:17;19.90;99.90
54126;DHT22;40360;52.992;6.796;2023-07-31T15:48:43;19.90;99.90
54126;DHT22;40360;52.992;6.796;2023-07-31T15:51:08;19.90;99.90
54126;DHT22;40360;52.992;6.796;2023-07-31T15:53:34;19.90;99.90
54126;DHT22;40360;52.992;6.796;2023-07-31T15:55:59;19.90;99.90
54126;DHT22;40360;52.992;6.796;2023-07-31T15:58:25;19.90;99.90
54126;DHT22;40360;52.992;6.796;2023-07-31T16:00:51;19.90;99.90
54126;DHT22;40360;52.992;6.796;2023-07-31T16:03:17;19.90;99.90
54126;DHT22;40360;52.992;6.796;2023-07-31T16:05:42;19.80;99.90